Time;durP1;ratioP1;P1;durP2;ratioP2;P2;SDS_P1;SDS_P2;PMS_P1;PMS_P2;Temp;Humidity;BMP_temperature;BMP_pressure;BME280_temperature;BME280_humidity;BME280_pressure;Samples;Min_cycle;Max_cycle;Signal;HPM_P1;HPM_P2
2023/07/26 00:01:00;;;;;;;47.77;21.00;;;;;;;;;;6263515;28;20087;-60
2023/07/26 00:04:07;;;;;;;50.25;21.55;;;;;;;;;;6274217;28;20041;-60
2023/07/26 00:07:07;;;;;;;47.33;21.30;;;;;;;;;;6267492;28;20040;-61
2023/07/26 00:10:08;;;;;;;45.77;21.60;;;;;;;;;;6288938;28;20045;-61
2023/07/26 00:13:09;;;;;;;50.87;23.07;;;;;;;;;;6290021;28;20063;-60
2023/07/26 00:16:10;;;;;;;57.13;23.83;;;;;;;;;;6289899;28;20376;-60
2023/07/26 00:19:11;;;;;;;59.17;24.48;;;;;;;;;;6287926;28;20043;-60
2023/07/26 00:22:12;;;;;;;57.43;24.07;;;;;;;;;;6289417;28;20032;-60
2023/07/26 00:25:12;;;;;;;64.97;26.60;;;;;;;;;;6288809;28;20040;-60
2023/07/26 00:28:13;;;;;;;61.25;25.92;;;;;;;;;;6278820;28;20400;-60
2023/07/26 00:31:14;;;;;;;65.90;25.43;;;;;;;;;;6268742;28;20052;-60
2023/07/26 00:34:14;;;;;;;77.00;27.48;;;;;;;;;;6266702;28;20049;-60
2023/07/26 00:37:15;;;;;;;82.80;27.57;;;;;;;;;;6265608;28;20068;-61
2023/07/26 00:40:15;;;;;;;78.70;27.07;;;;;;;;;;6263985;28;20483;-61
2023/07/26 00:43:16;;;;;;;80.43;29.77;;;;;;;;;;6266400;28;20564;-60
2023/07/26 00:46:17;;;;;;;80.10;26.50;;;;;;;;;;6267362;28;20044;-60
2023/07/26 00:49:18;;;;;;;88.50;28.85;;;;;;;;;;6264821;28;20041;-61
2023/07/26 00:52:18;;;;;;;124.37;30.20;;;;;;;;;;6266463;28;20381;-60
2023/07/26 00:55:19;;;;;;;86.17;27.10;;;;;;;;;;6266973;28;20118;-60
2023/07/26 00:58:20;;;;;;;106.30;28.45;;;;;;;;;;6264497;28;20142;-60
2023/07/26 01:01:21;;;;;;;107.28;28.83;;;;;;;;;;6267558;28;20048;-61
2023/07/26 01:04:21;;;;;;;143.53;29.10;;;;;;;;;;6266662;28;20099;-60
2023/07/26 01:07:22;;;;;;;90.55;27.80;;;;;;;;;;6273353;28;20701;-60
2023/07/26 01:10:37;;;;;;;91.17;26.93;;;;;;;;;;6276929;28;20048;-61
2023/07/26 01:13:51;;;;;;;119.38;28.33;;;;;;;;;;6272357;28;20049;-61
2023/07/26 01:16:52;;;;;;;113.35;26.42;;;;;;;;;;6265376;28;20204;-60
2023/07/26 01:19:53;;;;;;;107.73;26.27;;;;;;;;;;6273343;28;20101;-60
2023/07/26 01:22:53;;;;;;;98.57;25.90;;;;;;;;;;6269509;28;20044;-61
2023/07/26 01:25:54;;;;;;;83.70;23.97;;;;;;;;;;6270912;28;20044;-61
2023/07/26 01:28:54;;;;;;;89.87;26.27;;;;;;;;;;6265853;28;20053;-60
2023/07/26 01:31:55;;;;;;;97.55;27.58;;;;;;;;;;6273613;28;20045;-60
2023/07/26 01:34:56;;;;;;;78.33;24.80;;;;;;;;;;6274018;28;20051;-61
2023/07/26 01:37:57;;;;;;;94.77;26.57;;;;;;;;;;6275305;28;20052;-61
2023/07/26 01:40:59;;;;;;;102.93;25.70;;;;;;;;;;6269091;28;20503;-61
2023/07/26 01:44:00;;;;;;;89.15;26.92;;;;;;;;;;6273576;28;20432;-61
2023/07/26 01:47:00;;;;;;;108.77;26.57;;;;;;;;;;6275893;28;20045;-61
2023/07/26 01:50:01;;;;;;;86.27;24.90;;;;;;;;;;6275036;28;20134;-61
2023/07/26 01:53:01;;;;;;;129.50;25.23;;;;;;;;;;6277759;28;20048;-61
2023/07/26 01:56:02;;;;;;;110.07;26.40;;;;;;;;;;6271626;28;20565;-61
2023/07/26 01:59:03;;;;;;;104.47;23.17;;;;;;;;;;6271585;28;20438;-61
2023/07/26 02:02:04;;;;;;;131.30;26.50;;;;;;;;;;6271085;28;20052;-61
2023/07/26 02:05:05;;;;;;;92.30;25.43;;;;;;;;;;6271220;28;20049;-61
2023/07/26 02:08:06;;;;;;;146.63;24.00;;;;;;;;;;6274753;28;20438;-61
2023/07/26 02:11:06;;;;;;;74.20;22.77;;;;;;;;;;6272138;28;20138;-61
2023/07/26 02:14:07;;;;;;;109.70;22.83;;;;;;;;;;6275052;28;20102;-61
2023/07/26 02:17:07;;;;;;;78.50;23.40;;;;;;;;;;6280405;28;20048;-60
2023/07/26 02:20:09;;;;;;;83.30;23.03;;;;;;;;;;6285536;28;20045;-61
2023/07/26 02:23:09;;;;;;;81.80;21.87;;;;;;;;;;6272086;28;20132;-61
2023/07/26 02:26:10;;;;;;;92.80;22.30;;;;;;;;;;6273596;28;20070;-61
2023/07/26 02:29:11;;;;;;;79.57;22.97;;;;;;;;;;6268144;28;20065;-61
2023/07/26 02:32:11;;;;;;;96.20;22.37;;;;;;;;;;6269465;28;20041;-61
2023/07/26 02:35:12;;;;;;;96.43;23.17;;;;;;;;;;6269635;28;20455;-61
2023/07/26 02:38:13;;;;;;;74.30;24.27;;;;;;;;;;6271685;28;20093;-61
2023/07/26 02:41:13;;;;;;;79.33;24.40;;;;;;;;;;6268121;28;20054;-61
2023/07/26 02:44:14;;;;;;;77.70;22.97;;;;;;;;;;6269324;28;20053;-61
2023/07/26 02:47:14;;;;;;;69.00;22.80;;;;;;;;;;6269886;28;20048;-61
2023/07/26 02:50:15;;;;;;;69.37;23.03;;;;;;;;;;6286122;28;20089;-61
2023/07/26 02:53:15;;;;;;;73.83;26.13;;;;;;;;;;6284107;28;20040;-61
2023/07/26 02:56:16;;;;;;;72.13;23.70;;;;;;;;;;6277283;28;20127;-61
2023/07/26 02:59:18;;;;;;;72.93;24.10;;;;;;;;;;6270631;28;20538;-61
2023/07/26 03:02:19;;;;;;;;;;;;;;;;;;6273563;28;20037;-61
2023/07/26 03:05:20;;;;;;;80.87;23.70;;;;;;;;;;6270008;28;19928;-61
2023/07/26 03:08:20;;;;;;;83.90;24.20;;;;;;;;;;6269364;28;20083;-61
2023/07/26 03:11:21;;;;;;;81.23;25.97;;;;;;;;;;6268584;28;20110;-61
2023/07/26 03:14:21;;;;;;;83.07;24.97;;;;;;;;;;6275715;28;20044;-61
2023/07/26 03:17:22;;;;;;;82.23;26.57;;;;;;;;;;6278619;28;20395;-61
2023/07/26 03:20:23;;;;;;;71.17;23.37;;;;;;;;;;6275989;28;20415;-61
2023/07/26 03:23:23;;;;;;;85.83;25.00;;;;;;;;;;6269090;28;20036;-61
2023/07/26 03:26:24;;;;;;;78.80;24.90;;;;;;;;;;6270669;28;20495;-61
2023/07/26 03:29:24;;;;;;;78.30;28.07;;;;;;;;;;6268375;28;20094;-61
2023/07/26 03:32:25;;;;;;;64.53;24.70;;;;;;;;;;6270604;28;20045;-61
2023/07/26 03:35:25;;;;;;;62.28;23.50;;;;;;;;;;6271256;28;20045;-62
2023/07/26 03:38:26;;;;;;;69.13;25.87;;;;;;;;;;6269051;28;20502;-62
2023/07/26 03:41:27;;;;;;;69.80;27.43;;;;;;;;;;6268985;28;20099;-61
2023/07/26 03:44:27;;;;;;;71.00;27.33;;;;;;;;;;6270475;28;20072;-61
2023/07/26 03:47:28;;;;;;;68.20;26.13;;;;;;;;;;6273407;28;20040;-61
2023/07/26 03:50:29;;;;;;;75.17;27.20;;;;;;;;;;6281507;28;20051;-61
2023/07/26 03:53:29;;;;;;;73.87;26.87;;;;;;;;;;6277731;28;20110;-61
2023/07/26 03:56:30;;;;;;;77.33;28.00;;;;;;;;;;6275725;28;20072;-61
2023/07/26 03:59:30;;;;;;;74.73;26.70;;;;;;;;;;6272670;28;20052;-61
2023/07/26 04:02:31;;;;;;;71.83;28.13;;;;;;;;;;6269833;28;20054;-61
2023/07/26 04:05:32;;;;;;;80.20;30.00;;;;;;;;;;6269272;28;20491;-61
2023/07/26 04:08:32;;;;;;;82.17;28.20;;;;;;;;;;6269500;28;20040;-61
2023/07/26 04:11:33;;;;;;;71.17;27.23;;;;;;;;;;6269061;28;20041;-61
2023/07/26 04:14:34;;;;;;;71.00;27.73;;;;;;;;;;6271255;28;20037;-61
2023/07/26 04:17:34;;;;;;;76.47;29.37;;;;;;;;;;6269563;28;20399;-62
2023/07/26 04:20:35;;;;;;;90.20;30.53;;;;;;;;;;6265855;28;20048;-61
2023/07/26 04:23:35;;;;;;;78.70;30.50;;;;;;;;;;6268529;28;20581;-61
2023/07/26 04:26:36;;;;;;;94.67;33.00;;;;;;;;;;6269063;28;20086;-61
2023/07/26 04:29:40;;;;;;;93.33;34.53;;;;;;;;;;6277387;28;20053;-61
2023/07/26 04:32:40;;;;;;;95.45;35.30;;;;;;;;;;6271170;28;20053;-61
2023/07/26 04:35:41;;;;;;;97.17;35.17;;;;;;;;;;6268648;28;20117;-61
2023/07/26 04:38:41;;;;;;;95.03;34.25;;;;;;;;;;6264457;28;20047;-61
2023/07/26 04:41:42;;;;;;;86.33;32.17;;;;;;;;;;6271376;28;20487;-61
2023/07/26 04:44:43;;;;;;;79.77;31.00;;;;;;;;;;6271557;28;20048;-61
2023/07/26 04:47:43;;;;;;;71.00;30.03;;;;;;;;;;6268129;28;20563;-61
2023/07/26 04:50:45;;;;;;;76.30;29.35;;;;;;;;;;6272336;28;20461;-61
2023/07/26 04:53:45;;;;;;;80.55;30.30;;;;;;;;;;6268301;28;20041;-61
2023/07/26 04:56:46;;;;;;;82.90;29.55;;;;;;;;;;6277221;28;20044;-61
2023/07/26 04:59:46;;;;;;;82.40;29.17;;;;;;;;;;6266513;28;20139;-60
2023/07/26 05:02:48;;;;;;;86.32;30.48;;;;;;;;;;6265177;28;20041;-61
2023/07/26 05:05:52;;;;;;;95.23;31.07;;;;;;;;;;6270683;28;20052;-61
2023/07/26 05:08:53;;;;;;;100.55;32.92;;;;;;;;;;6273678;28;20053;-60
2023/07/26 05:11:53;;;;;;;93.03;32.17;;;;;;;;;;6282136;28;20525;-60
2023/07/26 05:14:54;;;;;;;94.10;31.15;;;;;;;;;;6272354;28;20045;-60
2023/07/26 05:17:54;;;;;;;92.57;32.47;;;;;;;;;;6274320;28;20494;-61
2023/07/26 05:20:55;;;;;;;80.20;28.52;;;;;;;;;;6274379;28;20555;-61
2023/07/26 05:23:55;;;;;;;82.60;29.73;;;;;;;;;;6272909;28;20095;-61
2023/07/26 05:26:58;;;;;;;78.65;28.33;;;;;;;;;;6272455;28;20107;-61
2023/07/26 05:29:58;;;;;;;;;;;;;;;;;;6278250;28;20107;-61
2023/07/26 05:32:59;;;;;;;68.60;24.67;;;;;;;;;;6275908;28;20418;-60
2023/07/26 05:35:59;;;;;;;69.63;25.75;;;;;;;;;;6279938;28;20060;-61
2023/07/26 05:39:00;;;;;;;64.32;24.20;;;;;;;;;;6276774;28;20079;-61
2023/07/26 05:42:00;;;;;;;56.47;21.83;;;;;;;;;;6286007;28;20651;-61
2023/07/26 05:45:01;;;;;;;51.37;20.80;;;;;;;;;;6274645;28;20072;-60
2023/07/26 05:48:01;;;;;;;42.95;18.38;;;;;;;;;;6271076;28;20060;-61
2023/07/26 05:51:03;;;;;;;46.43;19.20;;;;;;;;;;6271223;28;20033;-61
2023/07/26 05:54:03;;;;;;;37.03;19.33;;;;;;;;;;6273888;28;20048;-60
2023/07/26 05:57:04;;;;;;;40.13;20.17;;;;;;;;;;6272895;28;20041;-60
2023/07/26 06:00:05;;;;;;;29.92;15.88;;;;;;;;;;6293327;28;20048;-61
2023/07/26 06:03:06;;;;;;;24.92;13.88;;;;;;;;;;6276390;28;20083;-61
2023/07/26 06:06:07;;;;;;;21.42;10.95;;;;;;;;;;6272563;28;20403;-60
2023/07/26 06:09:09;;;;;;;18.55;10.13;;;;;;;;;;6271205;28;20049;-60
2023/07/26 06:12:10;;;;;;;18.67;10.35;;;;;;;;;;6272448;28;20047;-60
2023/07/26 06:15:11;;;;;;;19.10;11.00;;;;;;;;;;6272031;28;20044;-60
2023/07/26 06:18:11;;;;;;;23.23;12.00;;;;;;;;;;6271844;28;20317;-60
2023/07/26 06:21:12;;;;;;;26.83;12.65;;;;;;;;;;6271853;28;20198;-60
2023/07/26 06:24:13;;;;;;;35.03;17.65;;;;;;;;;;6271716;28;20041;-60
2023/07/26 06:27:20;;;;;;;30.83;16.20;;;;;;;;;;6272412;28;20488;-60
2023/07/26 06:30:20;;;;;;;27.05;14.15;;;;;;;;;;6268609;28;20045;-61
2023/07/26 06:33:21;;;;;;;27.85;14.27;;;;;;;;;;6273786;28;20048;-60
2023/07/26 06:36:22;;;;;;;31.30;16.08;;;;;;;;;;6270064;28;20056;-61
2023/07/26 06:39:26;;;;;;;29.75;15.32;;;;;;;;;;6268420;28;20045;-60
2023/07/26 06:42:27;;;;;;;31.00;15.15;;;;;;;;;;6281957;28;20048;-60
2023/07/26 06:45:27;;;;;;;29.05;16.13;;;;;;;;;;6270825;28;20041;-61
2023/07/26 06:48:28;;;;;;;37.35;16.38;;;;;;;;;;6270771;28;20048;-60
2023/07/26 06:51:29;;;;;;;29.67;14.70;;;;;;;;;;6268644;28;20051;-60
2023/07/26 06:54:30;;;;;;;34.53;16.90;;;;;;;;;;6268164;28;20067;-60
2023/07/26 06:57:30;;;;;;;36.47;17.40;;;;;;;;;;6270665;28;20037;-59
2023/07/26 07:00:31;;;;;;;42.08;18.63;;;;;;;;;;6275648;28;20458;-60
2023/07/26 07:03:32;;;;;;;47.53;18.97;;;;;;;;;;6272626;28;20040;-60
2023/07/26 07:06:33;;;;;;;33.33;16.90;;;;;;;;;;6269459;28;20082;-61
2023/07/26 07:09:33;;;;;;;36.00;17.20;;;;;;;;;;6268995;28;20480;-61
2023/07/26 07:12:34;;;;;;;36.03;17.15;;;;;;;;;;6271578;28;20047;-60
2023/07/26 07:15:34;;;;;;;32.13;16.73;;;;;;;;;;6270051;28;20071;-60
2023/07/26 07:18:35;;;;;;;39.03;18.25;;;;;;;;;;6270009;28;20483;-60
2023/07/26 07:21:36;;;;;;;31.00;16.45;;;;;;;;;;6268264;28;20032;-60
2023/07/26 07:24:38;;;;;;;25.33;12.85;;;;;;;;;;6267852;28;20048;-60
2023/07/26 07:27:39;;;;;;;23.73;12.75;;;;;;;;;;6269921;28;20048;-59
2023/07/26 07:30:39;;;;;;;20.60;11.65;;;;;;;;;;6269950;28;20048;-60
2023/07/26 07:33:40;;;;;;;21.40;11.10;;;;;;;;;;6274443;28;20052;-60
2023/07/26 07:36:41;;;;;;;25.20;11.85;;;;;;;;;;6274570;28;20423;-62
2023/07/26 07:39:41;;;;;;;21.40;11.38;;;;;;;;;;6269571;28;20068;-62
2023/07/26 07:42:42;;;;;;;22.08;11.48;;;;;;;;;;6269835;28;20105;-62
2023/07/26 07:45:42;;;;;;;21.92;11.38;;;;;;;;;;6267181;28;20075;-62
2023/07/26 07:48:43;;;;;;;20.75;10.63;;;;;;;;;;6267211;28;20041;-61
2023/07/26 07:51:44;;;;;;;21.42;10.75;;;;;;;;;;6270900;28;20480;-61
2023/07/26 07:54:44;;;;;;;19.88;10.38;;;;;;;;;;6269807;28;20043;-61
2023/07/26 07:57:45;;;;;;;16.00;10.13;;;;;;;;;;6273612;28;20147;-61
2023/07/26 08:00:46;;;;;;;17.50;10.25;;;;;;;;;;6268844;28;20523;-61
2023/07/26 08:03:46;;;;;;;17.00;10.38;;;;;;;;;;6267367;28;20073;-61
2023/07/26 08:06:47;;;;;;;17.63;9.82;;;;;;;;;;6269512;28;20043;-62
2023/07/26 08:09:48;;;;;;;17.05;9.57;;;;;;;;;;6265759;28;20131;-61
2023/07/26 08:12:48;;;;;;;15.63;8.82;;;;;;;;;;6269108;28;20619;-62
2023/07/26 08:15:49;;;;;;;18.63;9.00;;;;;;;;;;6266419;28;20068;-61
2023/07/26 08:18:49;;;;;;;16.00;9.77;;;;;;;;;;6269180;28;20076;-61
2023/07/26 08:21:50;;;;;;;16.75;9.43;;;;;;;;;;6267159;28;20052;-61
2023/07/26 08:24:52;;;;;;;16.35;8.65;;;;;;;;;;6267459;28;20048;-61
2023/07/26 08:27:52;;;;;;;;;;;;;;;;;;6269314;28;20057;-61
2023/07/26 08:30:53;;;;;;;14.75;8.75;;;;;;;;;;6267617;28;19935;-61
2023/07/26 08:33:53;;;;;;;16.48;9.35;;;;;;;;;;6268334;28;20583;-61
2023/07/26 08:36:54;;;;;;;17.17;8.70;;;;;;;;;;6269888;28;20437;-61
2023/07/26 08:39:54;;;;;;;15.48;8.98;;;;;;;;;;6271206;28;20071;-61
2023/07/26 08:42:59;;;;;;;16.20;8.65;;;;;;;;;;6275347;28;20049;-61
2023/07/26 08:46:01;;;;;;;14.50;8.40;;;;;;;;;;6272680;28;20052;-61
2023/07/26 08:49:02;;;;;;;14.32;8.65;;;;;;;;;;6270491;28;20397;-61
2023/07/26 08:52:03;;;;;;;17.48;9.02;;;;;;;;;;6273417;28;20051;-62
2023/07/26 08:55:04;;;;;;;16.42;9.40;;;;;;;;;;6280846;28;20492;-61
2023/07/26 08:58:05;;;;;;;16.70;9.55;;;;;;;;;;6285180;28;20492;-62
2023/07/26 09:01:06;;;;;;;15.02;9.75;;;;;;;;;;6272337;28;20040;-62
2023/07/26 09:04:06;;;;;;;19.52;9.90;;;;;;;;;;6272717;28;21765;-62
2023/07/26 09:07:07;;;;;;;19.02;10.48;;;;;;;;;;6271505;28;20048;-61
2023/07/26 09:10:08;;;;;;;19.70;10.85;;;;;;;;;;6268248;28;20040;-61
2023/07/26 09:13:13;;;;;;;19.17;10.82;;;;;;;;;;6270635;28;20052;-61
2023/07/26 09:16:13;;;;;;;21.05;11.20;;;;;;;;;;6272086;28;20384;-62
2023/07/26 09:19:14;;;;;;;17.88;10.50;;;;;;;;;;6271998;28;20037;-62
2023/07/26 09:22:14;;;;;;;18.13;9.75;;;;;;;;;;6271841;28;20056;-62
2023/07/26 09:25:30;;;;;;;16.42;8.02;;;;;;;;;;6270489;28;20060;-62
2023/07/26 09:28:31;;;;;;;15.18;7.70;;;;;;;;;;6271829;28;20515;-62
2023/07/26 09:31:35;;;;;;;21.30;8.45;;;;;;;;;;6269323;28;20045;-62
2023/07/26 09:34:39;;;;;;;17.42;7.45;;;;;;;;;;6272196;28;20043;-62
2023/07/26 09:37:39;;;;;;;17.23;7.70;;;;;;;;;;6271194;28;20048;-62
2023/07/26 09:40:40;;;;;;;16.85;7.35;;;;;;;;;;6264796;28;20041;-61
2023/07/26 09:43:41;;;;;;;13.60;6.82;;;;;;;;;;6267049;28;20053;-62
2023/07/26 09:46:49;;;;;;;16.35;7.00;;;;;;;;;;6272149;28;20047;-61
2023/07/26 09:49:50;;;;;;;17.80;7.15;;;;;;;;;;6272794;28;20045;-62
2023/07/26 09:52:55;;;;;;;15.77;7.10;;;;;;;;;;6269802;28;20053;-62
2023/07/26 09:55:57;;;;;;;16.83;7.18;;;;;;;;;;6270938;28;20314;-62
2023/07/26 09:58:57;;;;;;;13.75;6.82;;;;;;;;;;6284846;28;20089;-62
2023/07/26 10:02:08;;;;;;;16.05;6.30;;;;;;;;;;6280765;28;20453;-62
2023/07/26 10:05:10;;;;;;;12.50;6.07;;;;;;;;;;6282035;28;20048;-62
2023/07/26 10:08:12;;;;;;;15.55;6.75;;;;;;;;;;6280808;28;20052;-62
2023/07/26 10:11:18;;;;;;;20.38;7.38;;;;;;;;;;6272461;28;20041;-62
2023/07/26 10:14:19;;;;;;;15.07;5.82;;;;;;;;;;6284005;28;20045;-62
2023/07/26 10:17:22;;;;;;;11.43;5.38;;;;;;;;;;6282439;28;20060;-62
2023/07/26 10:20:23;;;;;;;11.10;5.43;;;;;;;;;;6278941;28;20091;-62
2023/07/26 10:23:24;;;;;;;9.90;5.20;;;;;;;;;;6282343;28;20044;-59
2023/07/26 10:26:31;;;;;;;13.10;5.18;;;;;;;;;;6281756;28;20053;-61
2023/07/26 10:29:32;;;;;;;9.48;5.15;;;;;;;;;;6282733;28;20097;-61
2023/07/26 10:32:32;;;;;;;11.43;4.93;;;;;;;;;;6279159;28;20041;-60
2023/07/26 10:35:34;;;;;;;13.30;5.63;;;;;;;;;;6280350;28;20569;-61
2023/07/26 10:38:39;;;;;;;10.10;4.20;;;;;;;;;;6285975;28;20075;-61
2023/07/26 10:41:50;;;;;;;9.98;4.80;;;;;;;;;;6285148;28;20045;-61
2023/07/26 10:45:02;;;;;;;11.10;4.20;;;;;;;;;;6268365;28;20052;-62
2023/07/26 10:48:03;;;;;;;10.70;5.28;;;;;;;;;;6269403;28;20482;-62
2023/07/26 10:51:23;;;;;;;11.45;4.70;;;;;;;;;;6275107;28;20044;-61
2023/07/26 10:54:34;;;;;;;10.13;4.47;;;;;;;;;;6266545;28;20124;-61
2023/07/26 10:57:36;;;;;;;9.05;4.68;;;;;;;;;;6268970;28;20127;-61
2023/07/26 11:00:37;;;;;;;8.30;4.55;;;;;;;;;;6270214;28;20041;-62
2023/07/26 11:03:41;;;;;;;10.30;4.55;;;;;;;;;;6271944;28;20037;-61
2023/07/26 11:06:49;;;;;;;14.00;5.15;;;;;;;;;;6280255;28;20058;-61
2023/07/26 11:09:50;;;;;;;8.38;4.65;;;;;;;;;;6289193;28;20513;-62
2023/07/26 11:13:10;;;;;;;9.17;4.80;;;;;;;;;;6269394;28;20052;-61
2023/07/26 11:16:11;;;;;;;8.30;4.32;;;;;;;;;;6270491;28;20049;-61
2023/07/26 11:19:11;;;;;;;12.07;4.55;;;;;;;;;;6268561;28;20510;-61
2023/07/26 11:22:12;;;;;;;9.23;4.85;;;;;;;;;;6282394;28;20052;-61
2023/07/26 11:25:13;;;;;;;14.20;4.88;;;;;;;;;;6268242;28;20117;-61
2023/07/26 11:28:14;;;;;;;9.95;4.55;;;;;;;;;;6268095;28;20057;-61
2023/07/26 11:31:18;;;;;;;9.60;4.50;;;;;;;;;;6270343;28;20075;-61
2023/07/26 11:34:22;;;;;;;9.77;4.68;;;;;;;;;;6281535;28;20048;-61
2023/07/26 11:37:22;;;;;;;10.32;5.00;;;;;;;;;;6284568;28;20143;-61
2023/07/26 11:40:23;;;;;;;10.90;5.32;;;;;;;;;;6280269;28;20085;-61
2023/07/26 11:43:25;;;;;;;14.63;5.28;;;;;;;;;;6268931;28;20044;-61
2023/07/26 11:46:27;;;;;;;11.77;5.30;;;;;;;;;;6269510;28;20053;-62
2023/07/26 11:49:29;;;;;;;14.38;5.00;;;;;;;;;;6265728;28;20053;-61
2023/07/26 11:52:29;;;;;;;13.45;5.95;;;;;;;;;;6264167;28;20506;-61
2023/07/26 11:55:32;;;;;;;11.48;5.50;;;;;;;;;;6271024;28;20045;-61
2023/07/26 11:58:34;;;;;;;12.07;6.35;;;;;;;;;;6270415;28;20052;-61
2023/07/26 12:01:36;;;;;;;13.88;6.57;;;;;;;;;;6267604;28;20055;-61
2023/07/26 12:04:37;;;;;;;16.73;7.30;;;;;;;;;;6283576;28;20040;-61
2023/07/26 12:07:38;;;;;;;19.00;8.07;;;;;;;;;;6279815;28;20798;-61
2023/07/26 12:10:40;;;;;;;15.65;7.53;;;;;;;;;;6269930;28;20048;-62
2023/07/26 12:13:41;;;;;;;20.23;7.82;;;;;;;;;;6269616;28;20136;-61
2023/07/26 12:16:48;;;;;;;15.93;8.05;;;;;;;;;;6268473;28;20094;-62
2023/07/26 12:19:48;;;;;;;14.43;7.95;;;;;;;;;;6266680;28;20048;-61
2023/07/26 12:22:54;;;;;;;20.10;7.55;;;;;;;;;;6269470;28;20045;-61
2023/07/26 12:25:57;;;;;;;19.08;8.18;;;;;;;;;;6268661;28;20095;-61
2023/07/26 12:28:59;;;;;;;;;;;;;;;;;;6265945;28;20087;-61
2023/07/26 12:32:03;;;;;;;15.20;7.45;;;;;;;;;;6268658;28;19920;-61
2023/07/26 12:35:23;;;;;;;16.95;7.95;;;;;;;;;;6268204;28;20055;-62
2023/07/26 12:38:24;;;;;;;14.05;6.78;;;;;;;;;;6264953;28;20132;-61
2023/07/26 12:41:25;;;;;;;13.57;6.93;;;;;;;;;;6269944;28;20043;-61
2023/07/26 12:44:26;;;;;;;13.07;7.20;;;;;;;;;;6272346;28;20045;-61
2023/07/26 12:47:27;;;;;;;12.15;6.07;;;;;;;;;;6270090;28;20058;-61
2023/07/26 12:50:28;;;;;;;13.32;7.50;;;;;;;;;;6270008;28;20048;-61
2023/07/26 12:53:28;;;;;;;13.05;6.82;;;;;;;;;;6268570;28;20052;-62
2023/07/26 12:56:29;;;;;;;12.82;7.25;;;;;;;;;;6271439;28;20174;-62
2023/07/26 12:59:29;;;;;;;16.70;6.97;;;;;;;;;;6271460;28;20414;-62
2023/07/26 13:02:30;;;;;;;17.40;7.47;;;;;;;;;;6269664;28;20082;-61
2023/07/26 13:05:31;;;;;;;14.57;7.25;;;;;;;;;;6273182;28;20060;-62
2023/07/26 13:08:32;;;;;;;14.85;6.95;;;;;;;;;;6272683;28;20048;-61
2023/07/26 13:11:32;;;;;;;17.52;8.18;;;;;;;;;;6275490;28;20045;-61
2023/07/26 13:14:33;;;;;;;15.75;7.88;;;;;;;;;;6266834;28;20091;-61
2023/07/26 13:17:34;;;;;;;16.65;8.65;;;;;;;;;;6268209;28;20141;-61
2023/07/26 13:20:35;;;;;;;18.52;8.48;;;;;;;;;;6265658;28;20041;-61
2023/07/26 13:23:35;;;;;;;24.30;10.95;;;;;;;;;;6270224;28;20064;-61
2023/07/26 13:26:36;;;;;;;24.88;10.98;;;;;;;;;;6272744;28;20072;-61
2023/07/26 13:29:36;;;;;;;22.85;10.27;;;;;;;;;;6271692;28;20040;-61
2023/07/26 13:32:37;;;;;;;20.77;9.52;;;;;;;;;;6271051;28;20179;-62
2023/07/26 13:35:38;;;;;;;18.52;8.15;;;;;;;;;;6274258;28;20044;-61
2023/07/26 13:38:38;;;;;;;13.65;7.50;;;;;;;;;;6271436;28;20400;-61
2023/07/26 13:41:39;;;;;;;17.05;8.10;;;;;;;;;;6270040;28;20403;-61
2023/07/26 13:44:39;;;;;;;17.95;8.05;;;;;;;;;;6272597;28;20459;-61
2023/07/26 13:47:40;;;;;;;15.73;7.20;;;;;;;;;;6272312;28;20053;-61
2023/07/26 13:50:41;;;;;;;14.73;6.97;;;;;;;;;;6275157;28;20041;-61
2023/07/26 13:53:41;;;;;;;12.07;6.80;;;;;;;;;;6272202;28;20047;-61
2023/07/26 13:56:42;;;;;;;16.52;6.57;;;;;;;;;;6272920;28;20056;-61
2023/07/26 13:59:42;;;;;;;12.77;7.10;;;;;;;;;;6272602;28;20048;-61
2023/07/26 14:02:43;;;;;;;13.82;7.05;;;;;;;;;;6271269;28;20044;-61
2023/07/26 14:05:44;;;;;;;14.32;7.45;;;;;;;;;;6275166;28;20056;-61
2023/07/26 14:08:46;;;;;;;17.70;7.78;;;;;;;;;;6272931;28;20053;-61
2023/07/26 14:11:47;;;;;;;15.88;7.95;;;;;;;;;;6267381;28;20045;-61
2023/07/26 14:14:47;;;;;;;17.13;8.05;;;;;;;;;;6272703;28;20458;-61
2023/07/26 14:17:48;;;;;;;22.85;8.77;;;;;;;;;;6275013;28;20040;-60
2023/07/26 14:20:49;;;;;;;22.35;9.93;;;;;;;;;;6271421;28;20073;-61
2023/07/26 14:23:49;;;;;;;20.67;9.65;;;;;;;;;;6274913;28;20059;-61
2023/07/26 14:26:50;;;;;;;20.58;10.30;;;;;;;;;;6275759;28;20061;-61
2023/07/26 14:29:51;;;;;;;18.15;9.07;;;;;;;;;;6268770;28;20044;-61
2023/07/26 14:32:51;;;;;;;22.13;10.38;;;;;;;;;;6270848;28;20044;-61
2023/07/26 14:35:52;;;;;;;21.15;10.93;;;;;;;;;;6272423;28;20056;-61
2023/07/26 14:38:53;;;;;;;21.30;9.43;;;;;;;;;;6270184;28;20543;-61
2023/07/26 14:41:53;;;;;;;19.13;9.10;;;;;;;;;;6275718;28;20044;-61
2023/07/26 14:44:54;;;;;;;20.65;9.48;;;;;;;;;;6271575;28;20506;-62
2023/07/26 14:47:54;;;;;;;19.40;9.93;;;;;;;;;;6270168;28;20087;-61
2023/07/26 14:50:55;;;;;;;19.08;9.40;;;;;;;;;;6270018;28;20476;-61
2023/07/26 14:53:56;;;;;;;17.50;8.65;;;;;;;;;;6277192;28;20072;-61
2023/07/26 14:56:56;;;;;;;16.80;8.68;;;;;;;;;;6269606;28;20198;-61
2023/07/26 14:59:57;;;;;;;20.67;8.43;;;;;;;;;;6272449;28;20045;-61
2023/07/26 15:02:58;;;;;;;17.30;7.85;;;;;;;;;;6268758;28;20048;-61
2023/07/26 15:05:59;;;;;;;16.70;7.78;;;;;;;;;;6271472;28;20041;-61
2023/07/26 15:09:00;;;;;;;17.65;8.27;;;;;;;;;;6270089;28;20056;-61
2023/07/26 15:12:00;;;;;;;14.68;8.13;;;;;;;;;;6273857;28;20051;-61
2023/07/26 15:15:01;;;;;;;16.05;8.32;;;;;;;;;;6280130;28;20506;-61
2023/07/26 15:18:02;;;;;;;17.73;8.52;;;;;;;;;;6281152;28;20056;-62
2023/07/26 15:21:02;;;;;;;18.58;8.75;;;;;;;;;;6282616;28;20044;-61
2023/07/26 15:24:03;;;;;;;16.40;8.77;;;;;;;;;;6279933;28;20258;-61
2023/07/26 15:27:04;;;;;;;19.10;9.40;;;;;;;;;;6283577;28;20048;-61
2023/07/26 15:30:05;;;;;;;19.67;9.40;;;;;;;;;;6282085;28;20117;-61
2023/07/26 15:33:07;;;;;;;22.52;10.10;;;;;;;;;;6279692;28;20068;-62
2023/07/26 15:36:08;;;;;;;;;;;;;;;;;;6282229;28;20060;-61
2023/07/26 15:39:09;;;;;;;22.55;9.90;;;;;;;;;;6277905;28;19970;-61
2023/07/26 15:42:09;;;;;;;22.33;10.93;;;;;;;;;;6277296;28;20491;-61
2023/07/26 15:45:10;;;;;;;19.85;9.13;;;;;;;;;;6284191;28;20083;-61
2023/07/26 15:48:11;;;;;;;21.50;9.48;;;;;;;;;;6281585;28;20099;-61
2023/07/26 15:51:12;;;;;;;19.85;11.05;;;;;;;;;;6282137;28;20051;-61
2023/07/26 15:54:12;;;;;;;18.77;9.05;;;;;;;;;;6281713;28;20049;-61
2023/07/26 15:57:13;;;;;;;20.50;11.15;;;;;;;;;;6281495;28;20047;-61
2023/07/26 16:00:14;;;;;;;24.88;11.43;;;;;;;;;;6279200;28;20440;-61
2023/07/26 16:03:15;;;;;;;21.77;10.85;;;;;;;;;;6279420;28;20397;-62
2023/07/26 16:06:16;;;;;;;23.85;12.30;;;;;;;;;;6281738;28;20495;-61
2023/07/26 16:09:21;;;;;;;22.52;11.75;;;;;;;;;;6281212;28;20090;-60
2023/07/26 16:12:22;;;;;;;22.35;10.45;;;;;;;;;;6278254;28;20139;-60
2023/07/26 16:15:23;;;;;;;17.33;9.98;;;;;;;;;;6281637;28;20056;-61
2023/07/26 16:18:27;;;;;;;17.83;9.52;;;;;;;;;;6281063;28;20045;-61
2023/07/26 16:21:28;;;;;;;17.88;9.20;;;;;;;;;;6280999;28;20052;-61
2023/07/26 16:24:28;;;;;;;25.77;9.90;;;;;;;;;;6280293;28;20059;-60
2023/07/26 16:27:29;;;;;;;19.17;9.68;;;;;;;;;;6280961;28;20585;-60
2023/07/26 16:30:31;;;;;;;17.75;9.90;;;;;;;;;;6280350;28;20551;-61
2023/07/26 16:33:31;;;;;;;19.50;9.88;;;;;;;;;;6278576;28;20121;-60
2023/07/26 16:36:32;;;;;;;18.45;9.68;;;;;;;;;;6279184;28;20036;-61
2023/07/26 16:39:34;;;;;;;19.67;9.07;;;;;;;;;;6281035;28;20290;-61
2023/07/26 16:42:34;;;;;;;19.58;9.75;;;;;;;;;;6276968;28;20700;-60
2023/07/26 16:45:35;;;;;;;19.20;9.77;;;;;;;;;;6281613;28;20075;-60
2023/07/26 16:48:35;;;;;;;19.17;9.95;;;;;;;;;;6280862;28;20509;-58
2023/07/26 16:51:36;;;;;;;18.88;9.45;;;;;;;;;;6278821;28;20045;-61
2023/07/26 16:54:36;;;;;;;23.05;9.95;;;;;;;;;;6277507;28;20177;-59
2023/07/26 16:57:37;;;;;;;21.63;9.82;;;;;;;;;;6281782;28;20053;-63
2023/07/26 17:00:38;;;;;;;19.60;8.95;;;;;;;;;;6284183;28;20059;-63
2023/07/26 17:03:38;;;;;;;19.02;9.00;;;;;;;;;;6283298;28;20049;-63
2023/07/26 17:06:39;;;;;;;18.95;9.32;;;;;;;;;;6285989;28;20052;-62
2023/07/26 17:09:40;;;;;;;17.58;8.88;;;;;;;;;;6283566;28;20088;-62
2023/07/26 17:12:40;;;;;;;16.17;9.07;;;;;;;;;;6280468;28;20631;-62
2023/07/26 17:15:41;;;;;;;17.65;8.93;;;;;;;;;;6284549;28;20047;-62
2023/07/26 17:18:46;;;;;;;21.33;9.73;;;;;;;;;;6285770;28;20078;-61
2023/07/26 17:21:46;;;;;;;22.75;10.75;;;;;;;;;;6283323;28;20407;-62
2023/07/26 17:24:47;;;;;;;20.23;9.45;;;;;;;;;;6282767;28;20049;-63
2023/07/26 17:27:48;;;;;;;18.98;9.00;;;;;;;;;;6284852;28;20576;-62
2023/07/26 17:30:54;;;;;;;17.63;9.80;;;;;;;;;;6283542;28;20049;-63
2023/07/26 17:33:55;;;;;;;26.35;10.52;;;;;;;;;;6283099;28;20051;-62
2023/07/26 17:36:56;;;;;;;21.50;10.23;;;;;;;;;;6283474;28;20045;-62
2023/07/26 17:39:56;;;;;;;19.88;9.75;;;;;;;;;;6281356;28;20055;-62
2023/07/26 17:42:59;;;;;;;21.30;9.95;;;;;;;;;;6270682;28;20051;-62